sensor_id;sensor_type;location;lat;lon;timestamp;P1;durP1;ratioP1;P2;durP2;ratioP2
55007;SDS011;40902;45.116;21.296;2023-03-01T00:01:07;50.80;;;31.27;;
55007;SDS011;40902;45.116;21.296;2023-03-01T00:03:37;55.72;;;32.70;;
55007;SDS011;40902;45.116;21.296;2023-03-01T00:06:04;53.13;;;31.48;;
55007;SDS011;40902;45.116;21.296;2023-03-01T00:08:30;52.88;;;32.45;;
55007;SDS011;40902;45.116;21.296;2023-03-01T00:11:05;56.70;;;32.95;;
55007;SDS011;40902;45.116;21.296;2023-03-01T00:13:33;52.60;;;31.25;;
55007;SDS011;40902;45.116;21.296;2023-03-01T00:16:01;53.38;;;31.05;;
55007;SDS011;40902;45.116;21.296;2023-03-01T00:18:28;51.80;;;32.33;;
55007;SDS011;40902;45.116;21.296;2023-03-01T00:20:54;56.38;;;33.00;;
55007;SDS011;40902;45.116;21.296;2023-03-01T00:23:21;51.83;;;32.17;;
55007;SDS011;40902;45.116;21.296;2023-03-01T00:25:48;53.08;;;31.98;;
55007;SDS011;40902;45.116;21.296;2023-03-01T00:28:14;53.13;;;31.55;;
55007;SDS011;40902;45.116;21.296;2023-03-01T00:30:39;51.25;;;32.25;;
55007;SDS011;40902;45.116;21.296;2023-03-01T00:33:05;52.10;;;31.17;;
55007;SDS011;40902;45.116;21.296;2023-03-01T00:35:34;47.42;;;29.42;;
55007;SDS011;40902;45.116;21.296;2023-03-01T00:38:00;53.17;;;29.52;;
55007;SDS011;40902;45.116;21.296;2023-03-01T00:40:27;51.10;;;30.85;;
55007;SDS011;40902;45.116;21.296;2023-03-01T00:42:53;55.70;;;31.90;;
55007;SDS011;40902;45.116;21.296;2023-03-01T00:45:19;49.42;;;31.23;;
55007;SDS011;40902;45.116;21.296;2023-03-01T00:47:45;51.88;;;30.70;;
55007;SDS011;40902;45.116;21.296;2023-03-01T00:50:11;51.97;;;31.88;;
55007;SDS011;40902;45.116;21.296;2023-03-01T00:52:37;48.75;;;31.65;;
55007;SDS011;40902;45.116;21.296;2023-03-01T00:55:03;52.00;;;31.27;;
55007;SDS011;40902;45.116;21.296;2023-03-01T00:57:30;49.65;;;31.15;;
55007;SDS011;40902;45.116;21.296;2023-03-01T00:59:56;49.58;;;30.92;;
55007;SDS011;40902;45.116;21.296;2023-03-01T01:02:22;49.22;;;31.35;;
55007;SDS011;40902;45.116;21.296;2023-03-01T01:04:48;50.25;;;31.38;;
55007;SDS011;40902;45.116;21.296;2023-03-01T01:07:14;49.95;;;31.63;;
55007;SDS011;40902;45.116;21.296;2023-03-01T01:09:40;52.58;;;33.17;;
55007;SDS011;40902;45.116;21.296;2023-03-01T01:12:06;79.72;;;41.65;;
55007;SDS011;40902;45.116;21.296;2023-03-01T01:14:32;79.15;;;44.08;;
55007;SDS011;40902;45.116;21.296;2023-03-01T01:16:58;71.00;;;40.63;;
55007;SDS011;40902;45.116;21.296;2023-03-01T01:19:24;63.58;;;37.90;;
55007;SDS011;40902;45.116;21.296;2023-03-01T01:21:50;135.40;;;60.05;;
55007;SDS011;40902;45.116;21.296;2023-03-01T01:24:16;140.95;;;60.47;;
55007;SDS011;40902;45.116;21.296;2023-03-01T01:26:42;119.15;;;55.90;;
55007;SDS011;40902;45.116;21.296;2023-03-01T01:29:08;173.30;;;75.53;;
55007;SDS011;40902;45.116;21.296;2023-03-01T01:31:34;144.57;;;68.35;;
55007;SDS011;40902;45.116;21.296;2023-03-01T01:34:02;112.50;;;53.42;;
55007;SDS011;40902;45.116;21.296;2023-03-01T01:36:29;97.30;;;47.35;;
55007;SDS011;40902;45.116;21.296;2023-03-01T01:38:54;80.95;;;43.15;;
55007;SDS011;40902;45.116;21.296;2023-03-01T01:41:20;70.75;;;40.10;;
55007;SDS011;40902;45.116;21.296;2023-03-01T01:43:48;69.88;;;40.45;;
55007;SDS011;40902;45.116;21.296;2023-03-01T01:46:35;71.55;;;40.00;;
55007;SDS011;40902;45.116;21.296;2023-03-01T01:49:15;65.70;;;37.33;;
55007;SDS011;40902;45.116;21.296;2023-03-01T01:54:30;73.90;;;40.17;;
55007;SDS011;40902;45.116;21.296;2023-03-01T01:57:03;64.50;;;38.03;;
55007;SDS011;40902;45.116;21.296;2023-03-01T01:59:38;63.22;;;36.58;;
55007;SDS011;40902;45.116;21.296;2023-03-01T02:02:08;66.10;;;37.72;;
55007;SDS011;40902;45.116;21.296;2023-03-01T02:04:34;69.93;;;38.78;;
55007;SDS011;40902;45.116;21.296;2023-03-01T02:07:13;68.90;;;36.45;;
55007;SDS011;40902;45.116;21.296;2023-03-01T02:09:43;66.38;;;37.67;;
55007;SDS011;40902;45.116;21.296;2023-03-01T02:12:12;67.32;;;37.70;;
55007;SDS011;40902;45.116;21.296;2023-03-01T02:14:42;68.53;;;38.80;;
55007;SDS011;40902;45.116;21.296;2023-03-01T02:17:09;63.78;;;36.95;;
55007;SDS011;40902;45.116;21.296;2023-03-01T02:22:14;60.67;;;33.95;;
55007;SDS011;40902;45.116;21.296;2023-03-01T02:27:18;64.55;;;36.13;;
55007;SDS011;40902;45.116;21.296;2023-03-01T02:29:49;59.30;;;34.17;;
55007;SDS011;40902;45.116;21.296;2023-03-01T02:32:15;64.25;;;35.63;;
55007;SDS011;40902;45.116;21.296;2023-03-01T02:34:51;63.85;;;35.72;;
55007;SDS011;40902;45.116;21.296;2023-03-01T02:37:18;60.88;;;33.67;;
55007;SDS011;40902;45.116;21.296;2023-03-01T02:39:50;63.60;;;34.83;;
55007;SDS011;40902;45.116;21.296;2023-03-01T02:44:51;60.80;;;34.20;;
55007;SDS011;40902;45.116;21.296;2023-03-01T02:47:18;58.88;;;34.85;;
55007;SDS011;40902;45.116;21.296;2023-03-01T02:49:44;52.72;;;31.77;;
55007;SDS011;40902;45.116;21.296;2023-03-01T02:52:20;61.67;;;32.75;;
55007;SDS011;40902;45.116;21.296;2023-03-01T02:57:37;54.92;;;32.22;;
55007;SDS011;40902;45.116;21.296;2023-03-01T03:00:39;55.72;;;31.92;;
55007;SDS011;40902;45.116;21.296;2023-03-01T03:03:10;58.75;;;32.63;;
55007;SDS011;40902;45.116;21.296;2023-03-01T03:05:39;62.58;;;34.25;;
55007;SDS011;40902;45.116;21.296;2023-03-01T03:08:04;60.80;;;35.75;;
55007;SDS011;40902;45.116;21.296;2023-03-01T03:10:34;64.47;;;35.75;;
55007;SDS011;40902;45.116;21.296;2023-03-01T03:13:06;62.35;;;36.05;;
55007;SDS011;40902;45.116;21.296;2023-03-01T03:15:33;63.00;;;35.13;;
55007;SDS011;40902;45.116;21.296;2023-03-01T03:18:05;62.00;;;35.95;;
55007;SDS011;40902;45.116;21.296;2023-03-01T03:20:33;64.35;;;36.35;;
55007;SDS011;40902;45.116;21.296;2023-03-01T03:22:59;64.47;;;36.50;;
55007;SDS011;40902;45.116;21.296;2023-03-01T03:25:26;63.83;;;35.97;;
55007;SDS011;40902;45.116;21.296;2023-03-01T03:27:53;61.05;;;35.60;;
55007;SDS011;40902;45.116;21.296;2023-03-01T03:30:22;61.65;;;33.97;;
55007;SDS011;40902;45.116;21.296;2023-03-01T03:32:49;60.55;;;35.00;;
55007;SDS011;40902;45.116;21.296;2023-03-01T03:35:25;65.07;;;35.22;;
55007;SDS011;40902;45.116;21.296;2023-03-01T03:37:58;62.67;;;34.80;;
55007;SDS011;40902;45.116;21.296;2023-03-01T03:43:02;57.58;;;34.95;;
55007;SDS011;40902;45.116;21.296;2023-03-01T03:45:29;56.55;;;34.33;;
55007;SDS011;40902;45.116;21.296;2023-03-01T03:47:58;53.35;;;31.58;;
55007;SDS011;40902;45.116;21.296;2023-03-01T03:50:25;55.60;;;33.72;;
55007;SDS011;40902;45.116;21.296;2023-03-01T03:52:51;55.00;;;33.15;;
55007;SDS011;40902;45.116;21.296;2023-03-01T03:55:16;52.85;;;31.95;;
55007;SDS011;40902;45.116;21.296;2023-03-01T03:57:44;53.92;;;31.58;;
55007;SDS011;40902;45.116;21.296;2023-03-01T04:00:17;55.25;;;32.45;;
55007;SDS011;40902;45.116;21.296;2023-03-01T04:02:45;54.03;;;32.13;;
55007;SDS011;40902;45.116;21.296;2023-03-01T04:05:13;54.10;;;31.80;;
55007;SDS011;40902;45.116;21.296;2023-03-01T04:07:40;52.22;;;29.75;;
55007;SDS011;40902;45.116;21.296;2023-03-01T04:10:11;49.25;;;29.85;;
55007;SDS011;40902;45.116;21.296;2023-03-01T04:12:39;50.08;;;30.50;;
55007;SDS011;40902;45.116;21.296;2023-03-01T04:15:05;52.60;;;30.70;;
55007;SDS011;40902;45.116;21.296;2023-03-01T04:17:41;49.63;;;29.85;;
55007;SDS011;40902;45.116;21.296;2023-03-01T04:20:12;49.65;;;29.23;;
55007;SDS011;40902;45.116;21.296;2023-03-01T04:22:39;51.78;;;31.10;;
55007;SDS011;40902;45.116;21.296;2023-03-01T04:25:05;53.38;;;30.80;;
55007;SDS011;40902;45.116;21.296;2023-03-01T04:27:35;50.78;;;30.10;;
55007;SDS011;40902;45.116;21.296;2023-03-01T04:30:02;53.65;;;30.88;;
55007;SDS011;40902;45.116;21.296;2023-03-01T04:32:28;48.03;;;29.88;;
55007;SDS011;40902;45.116;21.296;2023-03-01T04:34:54;52.35;;;30.52;;
55007;SDS011;40902;45.116;21.296;2023-03-01T04:37:20;52.85;;;30.48;;
55007;SDS011;40902;45.116;21.296;2023-03-01T04:39:46;46.08;;;29.40;;
55007;SDS011;40902;45.116;21.296;2023-03-01T04:42:12;55.35;;;31.33;;
55007;SDS011;40902;45.116;21.296;2023-03-01T04:44:38;51.00;;;30.25;;
55007;SDS011;40902;45.116;21.296;2023-03-01T04:47:04;49.15;;;29.17;;
55007;SDS011;40902;45.116;21.296;2023-03-01T04:49:30;53.38;;;31.23;;
55007;SDS011;40902;45.116;21.296;2023-03-01T04:51:56;50.83;;;30.23;;
55007;SDS011;40902;45.116;21.296;2023-03-01T04:54:27;53.38;;;31.15;;
55007;SDS011;40902;45.116;21.296;2023-03-01T04:56:54;56.45;;;32.78;;
55007;SDS011;40902;45.116;21.296;2023-03-01T04:59:20;53.47;;;32.00;;
55007;SDS011;40902;45.116;21.296;2023-03-01T05:01:49;54.20;;;31.98;;
55007;SDS011;40902;45.116;21.296;2023-03-01T05:04:15;54.63;;;31.33;;
55007;SDS011;40902;45.116;21.296;2023-03-01T05:06:41;54.67;;;32.42;;
55007;SDS011;40902;45.116;21.296;2023-03-01T05:09:07;55.83;;;32.85;;
55007;SDS011;40902;45.116;21.296;2023-03-01T05:11:33;55.15;;;33.45;;
55007;SDS011;40902;45.116;21.296;2023-03-01T05:14:09;55.10;;;32.95;;
55007;SDS011;40902;45.116;21.296;2023-03-01T05:16:35;55.20;;;31.95;;
55007;SDS011;40902;45.116;21.296;2023-03-01T05:19:02;55.17;;;31.88;;
55007;SDS011;40902;45.116;21.296;2023-03-01T05:21:39;62.08;;;34.92;;
55007;SDS011;40902;45.116;21.296;2023-03-01T05:24:25;55.58;;;32.97;;
55007;SDS011;40902;45.116;21.296;2023-03-01T05:26:51;53.38;;;33.03;;
55007;SDS011;40902;45.116;21.296;2023-03-01T05:29:18;53.05;;;33.70;;
55007;SDS011;40902;45.116;21.296;2023-03-01T05:31:50;51.88;;;34.08;;
55007;SDS011;40902;45.116;21.296;2023-03-01T05:34:18;54.50;;;32.90;;
55007;SDS011;40902;45.116;21.296;2023-03-01T05:36:47;60.72;;;37.65;;
55007;SDS011;40902;45.116;21.296;2023-03-01T05:39:13;53.03;;;33.08;;
55007;SDS011;40902;45.116;21.296;2023-03-01T05:41:39;52.80;;;32.67;;
55007;SDS011;40902;45.116;21.296;2023-03-01T05:44:06;56.72;;;34.92;;
55007;SDS011;40902;45.116;21.296;2023-03-01T05:46:31;55.67;;;34.33;;
55007;SDS011;40902;45.116;21.296;2023-03-01T05:48:57;49.10;;;31.70;;
55007;SDS011;40902;45.116;21.296;2023-03-01T05:51:23;51.95;;;32.25;;
55007;SDS011;40902;45.116;21.296;2023-03-01T05:53:48;48.08;;;32.05;;
55007;SDS011;40902;45.116;21.296;2023-03-01T05:56:14;57.85;;;35.00;;
55007;SDS011;40902;45.116;21.296;2023-03-01T05:58:40;69.28;;;40.70;;
55007;SDS011;40902;45.116;21.296;2023-03-01T06:01:10;61.60;;;38.25;;
55007;SDS011;40902;45.116;21.296;2023-03-01T06:03:36;60.35;;;36.13;;
55007;SDS011;40902;45.116;21.296;2023-03-01T06:06:02;53.33;;;31.35;;
55007;SDS011;40902;45.116;21.296;2023-03-01T06:08:28;56.13;;;35.58;;
55007;SDS011;40902;45.116;21.296;2023-03-01T06:10:54;53.17;;;34.85;;
55007;SDS011;40902;45.116;21.296;2023-03-01T06:13:19;51.30;;;32.97;;
55007;SDS011;40902;45.116;21.296;2023-03-01T06:15:45;55.60;;;35.80;;
55007;SDS011;40902;45.116;21.296;2023-03-01T06:18:11;54.05;;;31.67;;
55007;SDS011;40902;45.116;21.296;2023-03-01T06:20:36;49.63;;;30.70;;
55007;SDS011;40902;45.116;21.296;2023-03-01T06:23:02;52.08;;;31.08;;
55007;SDS011;40902;45.116;21.296;2023-03-01T06:25:28;51.28;;;33.28;;
55007;SDS011;40902;45.116;21.296;2023-03-01T06:27:54;50.65;;;31.05;;
55007;SDS011;40902;45.116;21.296;2023-03-01T06:30:20;47.03;;;30.42;;
55007;SDS011;40902;45.116;21.296;2023-03-01T06:32:49;52.08;;;30.70;;
55007;SDS011;40902;45.116;21.296;2023-03-01T06:35:15;48.67;;;28.67;;
55007;SDS011;40902;45.116;21.296;2023-03-01T06:37:45;53.92;;;29.65;;
55007;SDS011;40902;45.116;21.296;2023-03-01T06:40:12;52.38;;;31.88;;
55007;SDS011;40902;45.116;21.296;2023-03-01T06:42:39;47.65;;;29.15;;
55007;SDS011;40902;45.116;21.296;2023-03-01T06:45:06;50.10;;;30.92;;
55007;SDS011;40902;45.116;21.296;2023-03-01T06:47:34;47.65;;;28.55;;
55007;SDS011;40902;45.116;21.296;2023-03-01T06:50:01;51.47;;;31.85;;
55007;SDS011;40902;45.116;21.296;2023-03-01T06:52:27;47.40;;;30.08;;
55007;SDS011;40902;45.116;21.296;2023-03-01T06:54:53;46.97;;;29.52;;
55007;SDS011;40902;45.116;21.296;2023-03-01T06:57:18;46.70;;;28.90;;
55007;SDS011;40902;45.116;21.296;2023-03-01T06:59:44;51.10;;;29.98;;
55007;SDS011;40902;45.116;21.296;2023-03-01T07:02:11;51.08;;;31.05;;
55007;SDS011;40902;45.116;21.296;2023-03-01T07:04:38;52.00;;;30.00;;
55007;SDS011;40902;45.116;21.296;2023-03-01T07:07:04;61.80;;;30.67;;
55007;SDS011;40902;45.116;21.296;2023-03-01T07:09:30;65.45;;;32.20;;
55007;SDS011;40902;45.116;21.296;2023-03-01T07:11:56;55.10;;;31.25;;
55007;SDS011;40902;45.116;21.296;2023-03-01T07:14:22;52.20;;;33.08;;
55007;SDS011;40902;45.116;21.296;2023-03-01T07:16:54;58.25;;;33.47;;
55007;SDS011;40902;45.116;21.296;2023-03-01T07:19:21;55.33;;;32.38;;
55007;SDS011;40902;45.116;21.296;2023-03-01T07:21:47;55.97;;;32.47;;
55007;SDS011;40902;45.116;21.296;2023-03-01T07:24:13;55.10;;;32.97;;
55007;SDS011;40902;45.116;21.296;2023-03-01T07:26:39;52.08;;;32.67;;
55007;SDS011;40902;45.116;21.296;2023-03-01T07:29:05;53.33;;;30.10;;
55007;SDS011;40902;45.116;21.296;2023-03-01T07:31:32;55.67;;;31.85;;
55007;SDS011;40902;45.116;21.296;2023-03-01T07:33:58;53.30;;;32.03;;
55007;SDS011;40902;45.116;21.296;2023-03-01T07:36:24;47.53;;;30.55;;
55007;SDS011;40902;45.116;21.296;2023-03-01T07:38:50;46.60;;;28.60;;
55007;SDS011;40902;45.116;21.296;2023-03-01T07:41:17;51.60;;;29.50;;
55007;SDS011;40902;45.116;21.296;2023-03-01T07:43:42;49.40;;;29.95;;
55007;SDS011;40902;45.116;21.296;2023-03-01T07:46:08;45.92;;;29.00;;
55007;SDS011;40902;45.116;21.296;2023-03-01T07:48:34;49.55;;;31.45;;
55007;SDS011;40902;45.116;21.296;2023-03-01T07:51:00;48.47;;;28.60;;
55007;SDS011;40902;45.116;21.296;2023-03-01T07:53:27;49.55;;;28.98;;
55007;SDS011;40902;45.116;21.296;2023-03-01T07:56:06;46.63;;;28.70;;
55007;SDS011;40902;45.116;21.296;2023-03-01T07:58:34;47.97;;;29.25;;
55007;SDS011;40902;45.116;21.296;2023-03-01T08:01:01;54.33;;;32.35;;
55007;SDS011;40902;45.116;21.296;2023-03-01T08:03:28;45.95;;;29.73;;
55007;SDS011;40902;45.116;21.296;2023-03-01T08:05:54;49.78;;;30.83;;
55007;SDS011;40902;45.116;21.296;2023-03-01T08:08:20;53.63;;;33.55;;
55007;SDS011;40902;45.116;21.296;2023-03-01T08:10:45;45.95;;;28.58;;
55007;SDS011;40902;45.116;21.296;2023-03-01T08:13:11;51.08;;;31.75;;
55007;SDS011;40902;45.116;21.296;2023-03-01T08:15:37;54.63;;;33.95;;
55007;SDS011;40902;45.116;21.296;2023-03-01T08:18:02;51.65;;;33.92;;
55007;SDS011;40902;45.116;21.296;2023-03-01T08:20:28;56.42;;;36.40;;
55007;SDS011;40902;45.116;21.296;2023-03-01T08:22:54;51.20;;;34.60;;
55007;SDS011;40902;45.116;21.296;2023-03-01T08:25:20;53.03;;;35.35;;
55007;SDS011;40902;45.116;21.296;2023-03-01T08:27:45;38.70;;;24.75;;
55007;SDS011;40902;45.116;21.296;2023-03-01T08:30:11;39.00;;;25.65;;
55007;SDS011;40902;45.116;21.296;2023-03-01T08:32:38;37.92;;;23.48;;
55007;SDS011;40902;45.116;21.296;2023-03-01T08:35:04;33.92;;;21.58;;
55007;SDS011;40902;45.116;21.296;2023-03-01T08:37:30;33.25;;;21.17;;
55007;SDS011;40902;45.116;21.296;2023-03-01T08:39:57;35.72;;;23.10;;
55007;SDS011;40902;45.116;21.296;2023-03-01T08:42:24;35.65;;;22.73;;
55007;SDS011;40902;45.116;21.296;2023-03-01T08:44:50;36.63;;;20.67;;
55007;SDS011;40902;45.116;21.296;2023-03-01T08:47:16;31.67;;;19.23;;
55007;SDS011;40902;45.116;21.296;2023-03-01T08:49:42;34.90;;;21.92;;
55007;SDS011;40902;45.116;21.296;2023-03-01T08:52:07;34.10;;;21.65;;
55007;SDS011;40902;45.116;21.296;2023-03-01T08:54:33;32.10;;;21.80;;
55007;SDS011;40902;45.116;21.296;2023-03-01T08:57:00;31.65;;;18.65;;
55007;SDS011;40902;45.116;21.296;2023-03-01T08:59:27;28.95;;;18.20;;
55007;SDS011;40902;45.116;21.296;2023-03-01T09:01:54;26.38;;;16.88;;
55007;SDS011;40902;45.116;21.296;2023-03-01T09:04:20;27.58;;;17.92;;
55007;SDS011;40902;45.116;21.296;2023-03-01T09:06:46;25.00;;;16.42;;
55007;SDS011;40902;45.116;21.296;2023-03-01T09:09:16;28.70;;;17.33;;
55007;SDS011;40902;45.116;21.296;2023-03-01T09:11:42;26.02;;;17.20;;
55007;SDS011;40902;45.116;21.296;2023-03-01T09:14:11;24.73;;;15.85;;
55007;SDS011;40902;45.116;21.296;2023-03-01T09:16:37;27.00;;;17.75;;
55007;SDS011;40902;45.116;21.296;2023-03-01T09:19:03;26.20;;;18.08;;
55007;SDS011;40902;45.116;21.296;2023-03-01T09:21:29;27.27;;;17.75;;
55007;SDS011;40902;45.116;21.296;2023-03-01T09:23:55;26.83;;;16.50;;
55007;SDS011;40902;45.116;21.296;2023-03-01T09:26:22;24.50;;;17.50;;
55007;SDS011;40902;45.116;21.296;2023-03-01T09:28:50;26.73;;;18.10;;
55007;SDS011;40902;45.116;21.296;2023-03-01T09:31:17;26.77;;;16.75;;
55007;SDS011;40902;45.116;21.296;2023-03-01T09:33:48;23.23;;;16.20;;
55007;SDS011;40902;45.116;21.296;2023-03-01T09:36:16;21.35;;;15.10;;
55007;SDS011;40902;45.116;21.296;2023-03-01T09:38:43;25.13;;;16.60;;
55007;SDS011;40902;45.116;21.296;2023-03-01T09:41:11;24.85;;;16.35;;
55007;SDS011;40902;45.116;21.296;2023-03-01T09:46:21;22.80;;;13.95;;
55007;SDS011;40902;45.116;21.296;2023-03-01T09:48:54;22.65;;;14.57;;
55007;SDS011;40902;45.116;21.296;2023-03-01T09:51:29;23.58;;;15.07;;
55007;SDS011;40902;45.116;21.296;2023-03-01T09:53:57;28.30;;;17.48;;
55007;SDS011;40902;45.116;21.296;2023-03-01T09:59:29;20.98;;;13.75;;
55007;SDS011;40902;45.116;21.296;2023-03-01T10:04:51;23.60;;;14.63;;
55007;SDS011;40902;45.116;21.296;2023-03-01T10:07:49;22.08;;;14.65;;
55007;SDS011;40902;45.116;21.296;2023-03-01T10:10:26;24.35;;;14.57;;
55007;SDS011;40902;45.116;21.296;2023-03-01T10:16:17;19.83;;;13.90;;
55007;SDS011;40902;45.116;21.296;2023-03-01T10:19:05;23.58;;;13.25;;
55007;SDS011;40902;45.116;21.296;2023-03-01T10:21:39;21.83;;;12.43;;
55007;SDS011;40902;45.116;21.296;2023-03-01T10:24:16;19.88;;;12.93;;
55007;SDS011;40902;45.116;21.296;2023-03-01T10:26:56;22.70;;;12.98;;
55007;SDS011;40902;45.116;21.296;2023-03-01T10:29:30;27.02;;;14.05;;
55007;SDS011;40902;45.116;21.296;2023-03-01T10:32:02;20.10;;;13.43;;
55007;SDS011;40902;45.116;21.296;2023-03-01T10:34:32;15.30;;;11.20;;
55007;SDS011;40902;45.116;21.296;2023-03-01T10:39:37;18.55;;;11.57;;
55007;SDS011;40902;45.116;21.296;2023-03-01T10:42:26;14.47;;;9.03;;
55007;SDS011;40902;45.116;21.296;2023-03-01T10:47:47;16.88;;;10.02;;
55007;SDS011;40902;45.116;21.296;2023-03-01T10:50:38;14.85;;;9.60;;
55007;SDS011;40902;45.116;21.296;2023-03-01T10:55:58;13.93;;;8.30;;
55007;SDS011;40902;45.116;21.296;2023-03-01T10:58:26;13.65;;;9.07;;
55007;SDS011;40902;45.116;21.296;2023-03-01T11:13:39;20.05;;;12.73;;
55007;SDS011;40902;45.116;21.296;2023-03-01T11:16:16;17.17;;;12.00;;
55007;SDS011;40902;45.116;21.296;2023-03-01T11:24:23;18.80;;;13.10;;
